Afton, Michigan
Current Conditions -  °F | °C
As of 9:17 AM on Wednesday 26 Nov 2014 (Local Time) from KSLH Reporting Station
Overcast Overcast  
Wind Chill: -3°   Ceiling: 2700
Heat Index: -3°   Visibility: 10mi
Dew Point: -5°   Wind: 0mph
Humidity: 87%   Direction: NA
Pressure: 30.19"   Gusts: NA
Location:  45.36°N, 84.47°W
Report Text: KSLH 261417Z AUTO 00000KT 10SM OVC027 M03/M05 A3019 RMK AO2 T10301049
Loading
Personal Weather Stations






























Interactive Weather Map New forecast layout! Learn more

10-Day Weather Forecast

Advertisements
Track Severe Weather on mobile